createdAt,value
2019-06-08T00:01:48.610Z,97058.44
2019-06-08T00:04:18.799Z,97052.20
2019-06-08T00:06:49.083Z,97064.81
2019-06-08T00:09:20.857Z,97051.36
2019-06-08T00:11:51.279Z,97052.31
2019-06-08T00:14:21.607Z,97059.91
2019-06-08T00:16:51.911Z,97060.77
2019-06-08T00:19:22.088Z,97059.04
2019-06-08T00:21:52.347Z,97052.70
2019-06-08T00:24:22.589Z,97046.94
2019-06-08T00:26:52.895Z,97050.02
2019-06-08T00:29:24.487Z,97040.22
2019-06-08T00:31:54.809Z,97050.97
2019-06-08T00:34:25.081Z,97049.63
2019-06-08T00:36:55.490Z,97049.63
2019-06-08T00:39:25.648Z,97045.59
2019-06-08T00:41:55.972Z,97039.73
2019-06-08T00:44:26.301Z,97036.66
2019-06-08T00:46:56.555Z,97040.22
2019-06-08T00:49:29.059Z,97044.73
2019-06-08T00:51:59.496Z,97029.11
2019-06-08T00:54:30.673Z,97040.22
2019-06-08T00:57:01.298Z,97045.72
2019-06-08T00:59:31.611Z,97041.20
2019-06-08T01:02:01.910Z,97043.37
2019-06-08T01:04:32.096Z,97039.47
2019-06-08T01:07:02.345Z,97044.37
2019-06-08T01:09:32.592Z,97044.73
2019-06-08T01:12:02.893Z,97038.99
2019-06-08T01:14:33.076Z,97047.06
2019-06-08T01:17:03.251Z,97042.55
2019-06-08T01:19:33.625Z,97044.37
2019-06-08T01:22:03.888Z,97023.78
2019-06-08T01:24:34.107Z,97038.13
2019-06-08T01:27:04.417Z,97033.61
2019-06-08T01:29:34.642Z,97034.09
2019-06-08T01:32:04.802Z,97033.19
2019-06-08T01:34:35.085Z,97041.26
2019-06-08T01:37:05.319Z,97039.47
2019-06-08T01:39:35.823Z,97039.47
2019-06-08T01:42:06.009Z,97042.24
2019-06-08T01:44:36.206Z,97043.11
2019-06-08T01:47:06.430Z,97039.08
2019-06-08T01:49:36.915Z,97046.19
2019-06-08T01:52:07.134Z,97043.11
2019-06-08T01:54:37.353Z,97041.38
2019-06-08T01:57:07.582Z,97040.91
2019-06-08T01:59:37.733Z,97034.66
2019-06-08T02:02:08.035Z,97035.13
2019-06-08T02:04:38.361Z,97033.79
2019-06-08T02:07:08.554Z,97040.16
2019-06-08T02:09:38.751Z,97042.72
2019-06-08T02:12:08.996Z,97048.58
2019-06-08T02:14:39.361Z,97035.13
2019-06-08T02:17:09.659Z,97045.05
2019-06-08T02:19:39.984Z,97041.50
2019-06-08T02:22:10.264Z,97045.53
2019-06-08T02:24:40.453Z,97049.56
2019-06-08T02:27:10.773Z,97049.56
2019-06-08T02:29:41.042Z,97052.25
2019-06-08T02:32:11.308Z,97054.95
2019-06-08T02:34:41.585Z,97049.69
2019-06-08T02:37:11.766Z,97051.86
2019-06-08T02:39:43.022Z,97048.70
2019-06-08T02:42:13.277Z,97051.39
2019-06-08T02:44:43.455Z,97054.55
2019-06-08T02:47:16.286Z,97047.83
2019-06-08T02:49:45.686Z,97057.75
2019-06-08T02:52:16.025Z,97072.89
2019-06-08T02:54:46.159Z,97069.85
2019-06-08T02:57:16.438Z,97073.38
2019-06-08T02:59:46.701Z,97080.61
2019-06-08T03:02:16.976Z,97089.03
2019-06-08T03:04:47.186Z,97090.02
2019-06-08T03:07:18.030Z,97097.58
2019-06-08T03:09:48.501Z,97098.08
2019-06-08T03:12:18.879Z,97111.02
2019-06-08T03:14:49.129Z,97118.25
2019-06-08T03:17:19.481Z,97118.73
2019-06-08T03:19:49.694Z,97126.31
2019-06-08T03:22:19.907Z,97124.97
2019-06-08T03:24:50.268Z,97134.38
2019-06-08T03:27:20.546Z,97134.86
2019-06-08T03:29:50.738Z,97142.45
2019-06-08T03:32:20.976Z,97145.61
2019-06-08T03:34:56.446Z,97148.78
2019-06-08T03:37:23.155Z,97152.81
2019-06-08T03:39:53.484Z,97162.22
2019-06-08T03:42:23.778Z,97169.34
2019-06-08T03:44:54.022Z,97174.33
2019-06-08T03:47:24.275Z,97176.14
2019-06-08T03:49:57.358Z,97179.70
2019-06-08T03:52:26.340Z,97181.05
2019-06-08T03:54:56.627Z,97189.50
2019-06-08T03:57:26.778Z,97183.73
2019-06-08T03:59:57.085Z,97186.81
2019-06-08T04:02:27.318Z,97191.33
2019-06-08T04:04:57.633Z,97191.33
2019-06-08T04:07:27.918Z,97195.36
2019-06-08T04:09:58.171Z,97199.39
2019-06-08T04:12:28.410Z,97196.70
2019-06-08T04:14:58.645Z,97208.33
2019-06-08T04:17:28.930Z,97208.33
2019-06-08T04:20:10.619Z,97208.80
2019-06-08T04:22:31.123Z,97221.77
2019-06-08T04:25:02.270Z,97225.80
2019-06-08T04:27:32.575Z,97227.98
2019-06-08T04:30:02.869Z,97236.05
2019-06-08T04:32:33.122Z,97230.67
2019-06-08T04:35:03.426Z,97235.10
2019-06-08T04:37:33.803Z,97236.92
2019-06-08T04:40:04.207Z,97235.58
2019-06-08T04:42:34.515Z,97238.73
2019-06-08T04:45:05.362Z,97261.12
2019-06-08T04:47:35.774Z,97248.16
2019-06-08T04:50:21.439Z,97259.77
2019-06-08T04:52:40.812Z,97258.91
2019-06-08T04:55:11.535Z,97269.19
2019-06-08T04:57:43.320Z,97265.55
2019-06-08T05:00:14.117Z,97270.53
2019-06-08T05:02:46.245Z,97266.50
2019-06-08T05:05:16.205Z,97273.22
2019-06-08T05:07:48.473Z,97272.75
2019-06-08T05:10:18.385Z,97280.70
2019-06-08T05:12:50.225Z,97283.03
2019-06-08T05:15:20.790Z,97284.38
2019-06-08T05:17:51.086Z,97290.22
2019-06-08T05:20:37.775Z,97289.75
2019-06-08T05:22:54.188Z,97294.62
2019-06-08T05:25:24.640Z,97296.83
2019-06-08T05:27:54.941Z,97304.42
2019-06-08T05:30:27.999Z,97304.03
2019-06-08T05:32:57.118Z,97305.88
2019-06-08T05:35:27.305Z,97309.92
2019-06-08T05:37:57.637Z,97316.52
2019-06-08T05:40:27.903Z,97317.87
2019-06-08T05:42:58.229Z,97320.09
2019-06-08T05:45:28.567Z,97321.42
2019-06-08T05:47:58.788Z,97328.16
2019-06-08T05:50:29.106Z,97331.23
2019-06-08T05:52:59.381Z,97327.76
2019-06-08T05:55:29.634Z,97330.33
2019-06-08T05:57:59.932Z,97337.48
2019-06-08T06:00:30.099Z,97339.30
2019-06-08T06:03:00.324Z,97341.52
2019-06-08T06:05:30.899Z,97341.04
2019-06-08T06:08:01.143Z,97348.60
2019-06-08T06:10:31.437Z,97342.86
2019-06-08T06:13:01.704Z,97341.87
2019-06-08T06:15:31.921Z,97346.78
2019-06-08T06:18:02.230Z,97343.73
2019-06-08T06:20:32.532Z,97352.55
2019-06-08T06:23:02.929Z,97353.91
2019-06-08T06:25:33.230Z,97358.30
2019-06-08T06:28:06.285Z,97355.61
2019-06-08T06:30:35.909Z,97357.42
2019-06-08T06:33:06.331Z,97359.64
2019-06-08T06:35:36.637Z,97360.98
2019-06-08T06:38:06.862Z,97362.73
2019-06-08T06:40:37.214Z,97360.98
2019-06-08T06:43:07.412Z,97369.92
2019-06-08T06:45:37.735Z,97376.17
2019-06-08T06:48:08.029Z,97377.01
2019-06-08T06:50:38.277Z,97379.70
2019-06-08T06:53:08.585Z,97383.26
2019-06-08T06:55:38.826Z,97379.70
2019-06-08T06:58:09.232Z,97380.56
2019-06-08T07:00:39.499Z,97384.13
2019-06-08T07:03:09.759Z,97387.30
2019-06-08T07:05:39.916Z,97389.03
2019-06-08T07:08:10.323Z,97390.85
2019-06-08T07:10:40.639Z,97396.23
2019-06-08T07:13:10.862Z,97392.20
2019-06-08T07:15:42.005Z,97401.97
2019-06-08T07:18:12.338Z,97397.10
2019-06-08T07:20:42.627Z,97394.41
2019-06-08T07:23:12.881Z,97400.16
2019-06-08T07:25:43.162Z,97394.77
2019-06-08T07:28:13.444Z,97405.53
2019-06-08T07:30:43.670Z,97396.59
2019-06-08T07:33:13.933Z,97401.50
2019-06-08T07:35:44.329Z,97399.79
2019-06-08T07:38:14.571Z,97409.09
2019-06-08T07:40:44.817Z,97406.88
2019-06-08T07:43:15.088Z,97400.55
2019-06-08T07:45:45.360Z,97402.84
2019-06-08T07:48:15.688Z,97402.37
2019-06-08T07:50:46.026Z,97405.06
2019-06-08T07:53:16.359Z,97405.92
2019-06-08T07:55:47.066Z,97399.20
2019-06-08T07:58:18.548Z,97414.47
2019-06-08T08:00:50.098Z,97405.92
2019-06-08T08:03:20.792Z,97412.14
2019-06-08T08:05:53.148Z,97411.31
2019-06-08T08:08:23.083Z,97407.64
2019-06-08T08:10:54.543Z,97410.80
2019-06-08T08:13:24.886Z,97412.14
2019-06-08T08:15:58.660Z,97414.83
2019-06-08T08:18:27.066Z,97418.39
2019-06-08T08:20:59.226Z,97424.64
2019-06-08T08:23:29.312Z,97423.77
2019-06-08T08:26:01.815Z,97426.86
2019-06-08T08:28:31.707Z,97421.48
2019-06-08T08:31:02.052Z,97429.55
2019-06-08T08:33:32.213Z,97437.62
2019-06-08T08:36:02.544Z,97442.02
2019-06-08T08:38:32.700Z,97448.73
2019-06-08T08:41:07.133Z,97445.10
2019-06-08T08:43:37.572Z,97448.37
2019-06-08T08:46:07.638Z,97441.55
2019-06-08T08:48:38.036Z,97457.20
2019-06-08T08:51:08.641Z,97448.37
2019-06-08T08:53:38.901Z,97451.83
2019-06-08T08:56:09.136Z,97450.48
2019-06-08T08:58:39.429Z,97457.20
2019-06-08T09:01:09.693Z,97461.23
2019-06-08T09:03:40.085Z,97463.93
2019-06-08T09:06:10.366Z,97469.31
2019-06-08T09:08:40.640Z,97469.31
2019-06-08T09:11:10.947Z,97469.67
2019-06-08T09:13:41.178Z,97481.78
2019-06-08T09:16:11.406Z,97476.40
2019-06-08T09:18:41.702Z,97486.28
2019-06-08T09:21:11.966Z,97481.30
2019-06-08T09:23:42.374Z,97488.50
2019-06-08T09:26:13.382Z,97488.03
2019-06-08T09:28:43.743Z,97492.06
2019-06-08T09:31:13.887Z,97498.31
2019-06-08T09:33:53.383Z,97500.50
2019-06-08T09:36:17.710Z,97497.45
2019-06-08T09:38:48.261Z,97503.69
2019-06-08T09:41:18.734Z,97512.12
2019-06-08T09:43:48.962Z,97497.81
2019-06-08T09:46:19.283Z,97497.81
2019-06-08T09:48:49.526Z,97504.92
2019-06-08T09:51:19.709Z,97511.66
2019-06-08T09:53:50.055Z,97521.07
2019-06-08T09:56:20.246Z,97513.36
2019-06-08T09:58:51.457Z,97511.18
2019-06-08T10:01:21.917Z,97512.02
2019-06-08T10:03:52.185Z,97508.96
2019-06-08T10:06:22.494Z,97519.25
2019-06-08T10:08:54.176Z,97517.91
2019-06-08T10:11:24.381Z,97525.86
2019-06-08T10:13:54.687Z,97529.03
2019-06-08T10:16:24.863Z,97525.86
2019-06-08T10:18:56.263Z,97526.34
2019-06-08T10:21:28.449Z,97525.47
2019-06-08T10:24:01.035Z,97528.08
2019-06-08T10:26:30.692Z,97520.84
2019-06-08T10:29:04.106Z,97515.58
2019-06-08T10:31:39.820Z,97518.67
2019-06-08T10:34:10.676Z,97520.01
2019-06-08T10:36:38.379Z,97520.38
2019-06-08T10:39:11.482Z,97523.17
2019-06-08T10:41:40.911Z,97516.81
2019-06-08T10:44:14.282Z,97519.03
2019-06-08T10:46:44.333Z,97522.20
2019-06-08T10:49:18.427Z,97522.20
2019-06-08T10:51:48.727Z,97524.41
2019-06-08T10:54:19.276Z,97523.06
2019-06-08T10:56:49.690Z,97526.16
2019-06-08T10:59:20.018Z,97518.08
2019-06-08T11:01:50.246Z,97523.46
2019-06-08T11:04:20.515Z,97523.35
2019-06-08T11:06:50.822Z,97518.45
2019-06-08T11:09:21.500Z,97521.53
2019-06-08T11:11:51.778Z,97525.57
2019-06-08T11:14:22.897Z,97518.45
2019-06-08T11:16:53.220Z,97518.84
2019-06-08T11:19:26.429Z,97518.84
2019-06-08T11:22:00.423Z,97518.84
2019-06-08T11:24:29.007Z,97521.02
2019-06-08T11:27:00.029Z,97529.97
2019-06-08T11:29:31.385Z,97525.57
2019-06-08T11:32:02.076Z,97527.28
2019-06-08T11:34:32.517Z,97532.19
2019-06-08T11:37:03.663Z,97529.49
2019-06-08T11:39:35.241Z,97524.59
2019-06-08T11:42:09.256Z,97527.28
2019-06-08T11:44:40.741Z,97536.22
2019-06-08T11:47:13.251Z,97536.58
2019-06-08T11:49:43.898Z,97527.67
2019-06-08T11:52:15.194Z,97536.11
2019-06-08T11:54:47.910Z,97528.52
2019-06-08T11:57:17.737Z,97529.86
2019-06-08T11:59:48.601Z,97536.51
2019-06-08T12:02:18.934Z,97527.09
2019-06-08T12:04:49.186Z,97534.29
2019-06-08T12:07:19.550Z,97529.86
2019-06-08T12:09:50.372Z,97536.98
2019-06-08T12:12:21.527Z,97535.64
2019-06-08T12:14:51.917Z,97544.58
2019-06-08T12:17:22.707Z,97545.05
2019-06-08T12:19:52.990Z,97549.95
2019-06-08T12:22:23.290Z,97551.30
2019-06-08T12:24:53.531Z,97551.67
2019-06-08T12:27:33.123Z,97550.80
2019-06-08T12:29:55.816Z,97550.33
2019-06-08T12:32:27.805Z,97554.36
2019-06-08T12:35:00.113Z,97556.58
2019-06-08T12:37:30.447Z,97564.17
2019-06-08T12:40:01.390Z,97565.52
2019-06-08T12:42:32.175Z,97557.45
2019-06-08T12:45:02.478Z,97561.48
2019-06-08T12:47:32.727Z,97569.05
2019-06-08T12:50:03.022Z,97573.48
2019-06-08T12:52:34.324Z,97576.28
2019-06-08T12:55:08.143Z,97582.50
2019-06-08T12:57:36.552Z,97572.13
2019-06-08T13:00:08.476Z,97571.16
2019-06-08T13:02:38.896Z,97573.38
2019-06-08T13:05:12.439Z,97579.15
2019-06-08T13:07:41.120Z,97582.68
2019-06-08T13:10:11.393Z,97572.79
2019-06-08T13:12:41.628Z,97576.72
2019-06-08T13:15:12.877Z,97582.49
2019-06-08T13:17:43.194Z,97581.62
2019-06-08T13:20:20.527Z,97582.49
2019-06-08T13:22:48.464Z,97585.66
2019-06-08T13:25:34.224Z,97582.09
2019-06-08T13:27:50.990Z,97582.86
2019-06-08T13:30:25.873Z,97583.36
2019-06-08T13:32:53.414Z,97582.02
2019-06-08T13:35:23.637Z,97574.31
2019-06-08T13:37:53.966Z,97581.91
2019-06-08T13:40:24.180Z,97571.62
2019-06-08T13:42:54.379Z,97572.09
2019-06-08T13:45:24.661Z,97570.27
2019-06-08T13:47:54.884Z,97570.27
2019-06-08T13:50:25.208Z,97568.45
2019-06-08T13:52:55.426Z,97572.02
2019-06-08T13:55:42.593Z,97568.81
2019-06-08T13:57:58.149Z,97576.89
2019-06-08T14:00:34.924Z,97580.92
2019-06-08T14:03:08.489Z,97581.44
2019-06-08T14:05:39.005Z,97590.85
2019-06-08T14:08:11.046Z,97594.02
2019-06-08T14:10:42.125Z,97597.19
2019-06-08T14:13:12.427Z,97593.55
2019-06-08T14:15:42.722Z,97600.27
2019-06-08T14:18:12.972Z,97595.84
2019-06-08T14:20:43.287Z,97597.19
2019-06-08T14:23:13.804Z,97595.84
2019-06-08T14:25:53.174Z,97604.31
2019-06-08T14:28:19.336Z,97605.73
2019-06-08T14:30:50.084Z,97602.09
2019-06-08T14:33:24.184Z,97602.56
2019-06-08T14:35:53.128Z,97609.30
2019-06-08T14:38:29.288Z,97613.73
2019-06-08T14:40:56.088Z,97614.20
2019-06-08T14:43:29.466Z,97615.08
2019-06-08T14:45:58.397Z,97602.56
2019-06-08T14:48:33.595Z,97607.00
2019-06-08T14:51:00.666Z,97609.69
2019-06-08T14:53:30.881Z,97608.34
2019-06-08T14:56:08.262Z,97609.19
2019-06-08T14:58:34.899Z,97619.11
2019-06-08T15:01:05.131Z,97624.86
2019-06-08T15:03:37.713Z,97623.14
2019-06-08T15:06:08.144Z,97622.28
2019-06-08T15:08:38.522Z,97627.19
2019-06-08T15:11:08.812Z,97625.84
2019-06-08T15:13:40.560Z,97629.37
2019-06-08T15:16:11.077Z,97623.98
2019-06-08T15:18:42.471Z,97635.63
2019-06-08T15:21:12.746Z,97632.45
2019-06-08T15:23:43.051Z,97637.44
2019-06-08T15:26:24.035Z,97636.61
2019-06-08T15:28:45.249Z,97644.17
2019-06-08T15:31:17.911Z,97647.73
2019-06-08T15:33:48.200Z,97646.02
2019-06-08T15:36:20.792Z,97646.86
2019-06-08T15:38:50.464Z,97655.44
2019-06-08T15:41:21.402Z,97657.26
2019-06-08T15:43:52.737Z,97654.94
2019-06-08T15:46:24.095Z,97658.13
2019-06-08T15:48:54.381Z,97663.12
2019-06-08T15:51:24.616Z,97655.52
2019-06-08T15:53:54.898Z,97658.97
2019-06-08T15:56:40.128Z,97653.22
2019-06-08T15:58:58.827Z,97652.75
2019-06-08T16:01:29.458Z,97660.42
2019-06-08T16:03:59.695Z,97666.67
2019-06-08T16:06:29.995Z,97670.72
2019-06-08T16:09:00.586Z,97669.84
2019-06-08T16:11:32.524Z,97670.31
2019-06-08T16:14:02.782Z,97675.22
2019-06-08T16:16:33.456Z,97672.17
2019-06-08T16:19:03.722Z,97683.77
2019-06-08T16:21:34.344Z,97688.78
2019-06-08T16:24:04.979Z,97691.84
2019-06-08T16:26:37.376Z,97699.08
2019-06-08T16:29:07.140Z,97705.81
2019-06-08T16:31:37.420Z,97702.24
2019-06-08T16:34:08.907Z,97711.19
2019-06-08T16:36:40.114Z,97718.39
2019-06-08T16:39:10.967Z,97721.55
2019-06-08T16:41:41.376Z,97721.55
2019-06-08T16:44:11.843Z,97723.77
2019-06-08T16:46:42.215Z,97735.01
2019-06-08T16:49:12.464Z,97730.09
2019-06-08T16:51:42.966Z,97738.17
2019-06-08T16:54:13.126Z,97740.39
2019-06-08T16:56:43.434Z,97739.05
2019-06-08T16:59:13.625Z,97745.41
2019-06-08T17:01:44.179Z,97746.75
2019-06-08T17:04:14.473Z,97750.79
2019-06-08T17:06:44.721Z,97748.09
2019-06-08T17:09:15.064Z,97755.77
2019-06-08T17:11:45.411Z,97755.77
2019-06-08T17:14:15.663Z,97759.33
2019-06-08T17:16:45.851Z,97758.46
2019-06-08T17:19:16.212Z,97755.77
2019-06-08T17:21:46.468Z,97763.48
2019-06-08T17:24:16.748Z,97767.00
2019-06-08T17:26:47.006Z,97771.05
2019-06-08T17:29:17.293Z,97771.55
2019-06-08T17:31:47.646Z,97768.34
2019-06-08T17:34:20.579Z,97767.00
2019-06-08T17:36:50.019Z,97763.07
2019-06-08T17:39:20.245Z,97768.45
2019-06-08T17:41:50.462Z,97771.14
2019-06-08T17:44:20.613Z,97769.80
2019-06-08T17:46:50.842Z,97770.20
2019-06-08T17:49:21.229Z,97776.16
2019-06-08T17:51:51.447Z,97779.69
2019-06-08T17:54:21.681Z,97784.13
2019-06-08T17:56:51.982Z,97786.42
2019-06-08T17:59:22.161Z,97780.20
2019-06-08T18:01:52.428Z,97788.64
2019-06-08T18:04:22.603Z,97785.95
2019-06-08T18:06:53.078Z,97790.45
2019-06-08T18:09:23.284Z,97795.00
2019-06-08T18:11:53.517Z,97799.88
2019-06-08T18:14:23.726Z,97795.47
2019-06-08T18:16:53.970Z,97791.43
2019-06-08T18:19:28.464Z,97795.00
2019-06-08T18:22:04.813Z,97792.78
2019-06-08T18:24:30.709Z,97795.06
2019-06-08T18:27:00.994Z,97805.76
2019-06-08T18:29:31.320Z,97804.48
2019-06-08T18:32:01.652Z,97812.09
2019-06-08T18:34:32.017Z,97810.38
2019-06-08T18:37:02.240Z,97817.00
2019-06-08T18:39:32.557Z,97812.55
2019-06-08T18:42:02.765Z,97813.43
2019-06-08T18:44:33.043Z,97822.84
2019-06-08T18:47:03.353Z,97823.72
2019-06-08T18:49:33.594Z,97826.02
2019-06-08T18:52:03.833Z,97826.88
2019-06-08T18:54:35.413Z,97833.61
2019-06-08T18:57:08.591Z,97836.30
2019-06-08T18:59:43.153Z,97836.77
2019-06-08T19:02:09.993Z,97842.16
2019-06-08T19:04:41.768Z,97845.35
2019-06-08T19:07:12.461Z,97854.77
2019-06-08T19:09:43.728Z,97860.15
2019-06-08T19:12:14.076Z,97865.13
2019-06-08T19:14:44.374Z,97870.52
2019-06-08T19:17:14.557Z,97867.82
2019-06-08T19:19:48.448Z,97875.89
2019-06-08T19:22:18.997Z,97881.75
2019-06-08T19:24:50.896Z,97882.63
2019-06-08T19:27:21.154Z,97885.31
2019-06-08T19:29:51.904Z,97890.69
2019-06-08T19:32:22.200Z,97893.86
2019-06-08T19:34:54.756Z,97900.11
2019-06-08T19:37:24.451Z,97900.58
2019-06-08T19:39:54.603Z,97907.71
2019-06-08T19:42:37.082Z,97908.19
2019-06-08T19:45:04.971Z,97910.00
2019-06-08T19:47:29.048Z,97915.89
2019-06-08T19:49:59.329Z,97917.60
2019-06-08T19:52:29.517Z,97920.29
2019-06-08T19:54:59.798Z,97926.14
2019-06-08T19:57:30.000Z,97921.64
2019-06-08T20:00:00.578Z,97922.61
2019-06-08T20:02:30.945Z,97923.95
2019-06-08T20:05:01.196Z,97919.92
2019-06-08T20:07:31.485Z,97925.67
2019-06-08T20:10:07.712Z,97924.43
2019-06-08T20:12:38.098Z,97927.99
2019-06-08T20:15:10.044Z,97923.55
2019-06-08T20:17:41.642Z,97928.47
2019-06-08T20:20:13.554Z,97931.16
2019-06-08T20:22:43.827Z,97937.01
2019-06-08T20:25:14.373Z,97939.70
2019-06-08T20:27:45.299Z,97941.05
2019-06-08T20:30:17.404Z,97940.17
2019-06-08T20:32:50.793Z,97942.86
2019-06-08T20:35:19.891Z,97942.86
2019-06-08T20:37:50.249Z,97950.94
2019-06-08T20:40:20.482Z,97951.91
2019-06-08T20:42:53.291Z,97948.75
2019-06-08T20:45:22.662Z,97952.78
2019-06-08T20:47:53.909Z,97947.00
2019-06-08T20:50:24.186Z,97952.28
2019-06-08T20:52:54.513Z,97947.40
2019-06-08T20:55:24.694Z,97944.70
2019-06-08T20:57:57.326Z,97946.05
2019-06-08T21:00:27.014Z,97953.25
2019-06-08T21:03:02.781Z,97952.38
2019-06-08T21:05:29.400Z,97955.94
2019-06-08T21:07:59.666Z,97955.06
2019-06-08T21:10:29.954Z,97961.80
2019-06-08T21:13:00.153Z,97966.70
2019-06-08T21:15:30.396Z,97965.36
2019-06-08T21:18:00.642Z,97967.64
2019-06-08T21:20:30.957Z,97972.55
2019-06-08T21:23:01.250Z,97971.21
2019-06-08T21:25:31.829Z,97987.83
2019-06-08T21:28:02.130Z,97985.64
2019-06-08T21:30:32.390Z,97989.67
2019-06-08T21:33:02.689Z,97995.53
2019-06-08T21:35:32.992Z,97997.75
2019-06-08T21:38:03.213Z,97991.02
2019-06-08T21:40:33.542Z,97993.30
2019-06-08T21:43:03.845Z,97997.75
2019-06-08T21:45:34.013Z,97992.84
2019-06-08T21:48:04.282Z,97990.62
2019-06-08T21:50:36.951Z,97995.13
2019-06-08T21:53:07.781Z,98002.72
2019-06-08T21:55:38.358Z,98002.72
2019-06-08T21:58:08.598Z,98006.39
2019-06-08T22:00:43.261Z,98001.38
2019-06-08T22:03:12.400Z,98005.88
2019-06-08T22:05:42.754Z,98003.70
2019-06-08T22:08:12.994Z,98005.05
2019-06-08T22:10:44.213Z,98010.42
2019-06-08T22:13:14.468Z,98011.77
2019-06-08T22:15:44.747Z,98014.05
2019-06-08T22:18:14.999Z,98012.71
2019-06-08T22:20:47.647Z,98020.31
2019-06-08T22:23:18.047Z,98020.78
2019-06-08T22:25:48.282Z,98020.31
2019-06-08T22:28:19.556Z,98016.27
2019-06-08T22:30:49.818Z,98019.91
2019-06-08T22:33:20.136Z,98025.22
2019-06-08T22:35:52.588Z,98026.16
2019-06-08T22:38:22.429Z,98028.38
2019-06-08T22:40:52.693Z,98028.85
2019-06-08T22:43:23.989Z,98030.20
2019-06-08T22:45:54.442Z,98025.79
2019-06-08T22:48:24.753Z,98032.52
2019-06-08T22:50:58.008Z,98032.52
2019-06-08T22:53:27.723Z,98031.17
2019-06-08T22:55:59.924Z,98030.30
2019-06-08T22:58:29.925Z,98028.48
2019-06-08T23:01:04.092Z,98025.79
2019-06-08T23:03:32.350Z,98031.17
2019-06-08T23:06:03.876Z,98032.98
2019-06-08T23:08:37.306Z,98035.67
2019-06-08T23:11:08.442Z,98031.17
2019-06-08T23:13:38.734Z,98032.98
2019-06-08T23:16:09.147Z,98032.11
2019-06-08T23:18:39.332Z,98044.22
2019-06-08T23:21:09.681Z,98041.53
2019-06-08T23:23:39.983Z,98039.30
2019-06-08T23:26:10.692Z,98039.30
2019-06-08T23:28:40.938Z,98042.00
2019-06-08T23:31:21.084Z,98034.43
2019-06-08T23:33:43.277Z,98031.73
2019-06-08T23:38:47.989Z,98025.95
2019-06-08T23:41:17.837Z,98033.08
2019-06-08T23:43:48.249Z,98028.64
2019-06-08T23:46:18.557Z,98037.19
2019-06-08T23:48:48.773Z,98036.24
2019-06-08T23:51:19.053Z,98035.37
2019-06-08T23:53:50.433Z,98044.78
2019-06-08T23:56:20.727Z,98042.09
2019-06-08T23:58:50.972Z,98039.03
